Terminal Aerodrome Forecast
Issued by NWS Albuquerque, NM

Home | Current Version | Previous Version | Text Only | Print | Product List | Glossary On
Versions: 1 2 3 4 5 6 7 8 9 10 11 12 13 14 15
000
FTUS45 KABQ 251125
TAFABQ
TAF
KABQ 251125Z 2512/2612 VRB05KT P6SM SCT110
     FM251900 26011G18KT P6SM VCSH BKN070
      TEMPO 2520/2523 VRB20G30KT -TSRA BKN050CB
     FM260100 30006KT P6SM SCT060 BKN100=

USA.gov is the U.S. government's official web portal to all federal, state and local government web resources and services.